Montevideo, MN

3:44 PM CDT on August 23, 2014 (GMT -0500)
Madison-Lac Qui Parle County | Change Station
CLOSE
Current Station
Airport
Location: Madison,
Elevation: 1083 ft
Nearby Weather Stations

Elev 1083 ft 44.98 °N, 96.18 °W | Updated 10 minutes ago

Clear
Clear
77 °F
Feels Like 77 °F
N
13
Wind Variable Wind from East

Today
High -- | Low -- °F
--% Chance of Precip.
Yesterday
High -- | Low -- °F
Precip. -- in
6:34 AM 8:15 PM
Waning Crescent, 3% visible
Pressure 29.88 in
Visibility 10.0 miles
Clouds Clear
Dew Point 70 °F
Humidity 78%
Rainfall 0.04 in
Snow Depth Not available.
UV 7 out of 12
Pollen 6.30 out of 12
Air Quality Not available.
Flu Activity Not available.
METAR KDXX 232034Z AUTO 10011KT 10SM CLR 25/21 A2988 RMK AO2

More Conditions Fewer Conditions

Pressure 29.88 in
Visibility 10.0 miles
Clouds Clear
Dew Point 70 °F
Humidity 78%
Rainfall 0.04 in
Snow Depth Not available.
UV 7 out of 12
Pollen 6.30 out of 12
Air Quality Not available.
Flu Activity Not available.
METAR KDXX 232034Z AUTO 10011KT 10SM CLR 25/21 A2988 RMK AO2

More Conditions Fewer Conditions

10-Day Weather Forecast

Almanac

Astronomy

Aug. 23, 2014 Rise Set
Actual Time 6:34 AM CDT 8:15 PM CDT
Civil Twilight 6:03 AM CDT 8:46 PM CDT
Nautical Twilight 5:25 AM CDT 9:24 PM CDT
Astronomical Twilight 4:44 AM CDT 10:05 PM CDT
Moon 4:49 AM CDT 7:01 PM CDT
Length of Visible Light 14h 43m
Length of Day
13h 41m
Tomorrow will be 2m 55s shorter.
Waning Crescent, 3% of the Moon is Illuminated
Today
Waning Crescent
Aug 25
New
Sep 2
First Quarter
Sep 8
Full
Sep 15
Last Quarter

Today's Extremes

State Highs State Lows

Community

WunderPhotos

Upload Photos

1,746,622 photos uploaded!

WunderBlogs® & News

Nearby

Snow Depth

Station Depth Elevation
No new snow has been reported.

Earthquake Activity

City Distance Mag. Time & Date
No recent earthquake activity has been reported nearby.
Minimum magnitude displayed is 2.5.

Coastal Water Temperatures

Place Temperature
No Stations Reporting

Nearby Weather Stations